Time;durP1;ratioP1;P1;durP2;ratioP2;P2;SDS_P1;SDS_P2;PMS_P1;PMS_P2;Temp;Humidity;BMP_temperature;BMP_pressure;BME280_temperature;BME280_humidity;BME280_pressure;Samples;Min_cycle;Max_cycle;Signal;HPM_P1;HPM_P2
2023/01/24 00:00:57;;;;;;;3.15;2.90;;;;;;;-16.40;79.05;99704.56;4932687;28;20043;-57
2023/01/24 00:03:29;;;;;;;3.10;2.90;;;;;;;-16.36;78.56;99692.44;4933199;28;20043;-56
2023/01/24 00:06:00;;;;;;;3.25;3.05;;;;;;;-16.29;78.43;99708.81;4934594;28;21456;-57
2023/01/24 00:08:30;;;;;;;3.10;2.90;;;;;;;-16.31;77.57;99697.81;4928557;28;20132;-57
2023/01/24 00:11:01;;;;;;;3.30;3.10;;;;;;;-16.31;77.90;99690.31;4933476;28;21787;-55
2023/01/24 00:13:32;;;;;;;4.82;3.20;;;;;;;-16.33;77.71;99681.81;4932773;28;20047;-56
2023/01/24 00:16:07;;;;;;;4.72;2.92;;;;;;;-16.22;77.27;99681.03;4932744;28;20499;-56
2023/01/24 00:18:39;;;;;;;3.28;3.08;;;;;;;-16.23;77.04;99684.28;4933018;28;20052;-56
2023/01/24 00:21:12;;;;;;;4.97;2.92;;;;;;;-16.30;76.66;99647.03;4928588;28;20208;-57
2023/01/24 00:23:44;;;;;;;3.58;3.03;;;;;;;-16.01;76.36;99671.84;4931820;28;20056;-55
2023/01/24 00:26:15;;;;;;;3.35;3.05;;;;;;;-15.93;76.15;99654.91;4933025;28;20055;-57
2023/01/24 00:28:46;;;;;;;2.83;2.72;;;;;;;-15.94;75.54;99663.19;4932100;28;20079;-58
2023/01/24 00:31:17;;;;;;;3.03;2.83;;;;;;;-16.09;75.21;99658.72;4931205;28;20055;-56
2023/01/24 00:33:50;;;;;;;3.63;3.20;;;;;;;-16.07;75.90;99648.84;4931936;28;20051;-57
2023/01/24 00:36:20;;;;;;;3.58;2.80;;;;;;;-15.91;75.48;99648.41;4936917;28;20051;-58
2023/01/24 00:38:51;;;;;;;2.90;2.72;;;;;;;-15.78;75.27;99615.19;4935212;28;20171;-56
2023/01/24 00:41:21;;;;;;;3.33;2.95;;;;;;;-16.01;74.73;99575.88;4931664;28;20474;-57
2023/01/24 00:43:52;;;;;;;3.10;2.90;;;;;;;-15.81;74.67;99600.78;4932229;28;20050;-57
2023/01/24 00:46:22;;;;;;;3.90;3.20;;;;;;;-15.93;74.17;99584.84;4932645;28;20052;-57
2023/01/24 00:48:54;;;;;;;3.15;2.95;;;;;;;-16.04;74.91;99595.66;4932503;28;20074;-56
2023/01/24 00:51:25;;;;;;;3.22;3.03;;;;;;;-16.07;74.88;99601.31;4931473;28;20501;-55
2023/01/24 00:53:56;;;;;;;4.38;3.28;;;;;;;-16.04;75.11;99585.66;4932325;28;20142;-57
2023/01/24 00:56:26;;;;;;;3.45;3.10;;;;;;;-15.96;75.09;99565.44;4932528;28;20047;-57
2023/01/24 00:58:57;;;;;;;3.30;3.03;;;;;;;-16.02;74.88;99544.09;4932504;28;20098;-57
2023/01/24 01:01:27;;;;;;;5.45;3.40;;;;;;;-16.00;74.67;99545.06;4931887;28;20043;-57
2023/01/24 01:03:59;;;;;;;3.10;2.90;;;;;;;-16.01;75.02;99555.84;4932069;28;20052;-57
2023/01/24 01:06:30;;;;;;;9.85;3.10;;;;;;;-16.01;75.20;99525.81;4926658;28;20645;-56
2023/01/24 01:09:00;;;;;;;5.28;2.92;;;;;;;-16.08;75.27;99540.34;4934915;28;20046;-56
2023/01/24 01:11:31;;;;;;;4.82;2.92;;;;;;;-16.16;75.64;99536.41;4941544;28;20055;-56
2023/01/24 01:14:02;;;;;;;3.83;2.88;;;;;;;-16.23;75.97;99524.19;4932498;28;20053;-57
2023/01/24 01:16:37;;;;;;;3.17;2.72;;;;;;;-16.27;76.01;99517.22;4932109;28;20470;-57
2023/01/24 01:19:11;;;;;;;4.15;3.22;;;;;;;-16.25;76.73;99500.66;4931699;28;20403;-56
2023/01/24 01:21:44;;;;;;;3.05;2.80;;;;;;;-16.21;76.67;99477.66;4920997;28;20052;-57
2023/01/24 01:24:14;;;;;;;2.70;2.50;;;;;;;-16.16;76.41;99476.38;4931282;28;20077;-57
2023/01/24 01:26:45;;;;;;;4.05;3.30;;;;;;;-16.10;76.54;99431.81;4931522;28;20116;-56
2023/01/24 01:29:15;;;;;;;5.57;3.30;;;;;;;-16.20;76.50;99444.34;4931743;28;20791;-56
2023/01/24 01:31:46;;;;;;;4.25;3.50;;;;;;;-16.30;76.69;99441.91;4931793;28;20056;-57
2023/01/24 01:34:18;;;;;;;3.42;3.10;;;;;;;-16.78;76.82;99369.97;4931553;28;20062;-56
2023/01/24 01:36:48;;;;;;;4.80;3.03;;;;;;;-16.42;77.22;99446.00;4931210;28;20047;-56
2023/01/24 01:39:19;;;;;;;4.63;3.20;;;;;;;-16.48;76.03;99455.53;4931079;28;20058;-56
2023/01/24 01:41:50;;;;;;;2.85;2.72;;;;;;;-16.48;75.17;99460.53;4938881;28;20451;-57
2023/01/24 01:44:40;;;;;;;2.90;2.80;;;;;;;-16.56;75.31;99447.47;4934967;28;20049;-57
2023/01/24 01:47:24;;;;;;;3.47;3.13;;;;;;;-17.02;76.25;99319.91;4922890;28;20044;-55
2023/01/24 01:50:02;;;;;;;7.82;3.40;;;;;;;-16.59;75.96;99357.22;4919669;28;20051;-56
2023/01/24 01:52:38;;;;;;;4.45;3.80;;;;;;;-16.71;76.30;99352.16;4920879;28;20402;-55
2023/01/24 01:55:14;;;;;;;4.75;3.63;;;;;;;-16.85;76.62;99357.78;4930883;28;20055;-56
2023/01/24 01:57:45;;;;;;;6.55;3.30;;;;;;;-16.88;76.63;99352.56;4914742;28;20040;-57
2023/01/24 02:00:18;;;;;;;9.95;5.00;;;;;;;-16.89;76.96;99365.81;4928058;28;20055;-56
2023/01/24 02:03:37;;;;;;;4.80;3.40;;;;;;;-16.89;77.16;99374.16;4922517;28;20054;-56
2023/01/24 02:05:50;;;;;;;3.67;3.35;;;;;;;-17.27;77.44;99316.25;4918896;28;20172;-56
2023/01/24 02:08:23;;;;;;;3.55;3.25;;;;;;;-17.00;77.16;99373.31;4935208;28;20569;-57
2023/01/24 02:13:44;;;;;;;6.03;3.28;;;;;;;-17.01;77.36;99371.59;4920197;28;20051;-56
2023/01/24 02:16:15;;;;;;;5.32;3.53;;;;;;;-16.84;77.19;99362.03;4934218;28;20065;-56
2023/01/24 02:18:45;;;;;;;3.70;3.25;;;;;;;-16.63;75.85;99356.09;4935122;28;20056;-56
2023/01/24 02:21:18;;;;;;;8.13;3.55;;;;;;;-16.61;75.42;99344.59;4934389;28;20192;-56
2023/01/24 02:23:57;;;;;;;6.25;4.35;;;;;;;-16.92;75.65;99356.47;4933676;28;20050;-56
2023/01/24 02:26:30;;;;;;;6.68;3.92;;;;;;;-17.01;76.44;99366.59;4923523;27;20063;-57
2023/01/24 02:29:04;;;;;;;3.97;3.67;;;;;;;-17.05;77.06;99384.59;4927495;28;20059;-56
2023/01/24 02:31:56;;;;;;;9.73;4.18;;;;;;;-17.25;77.40;99344.72;4934331;28;20052;-55
2023/01/24 02:34:27;;;;;;;10.07;4.82;;;;;;;-17.29;77.53;99357.75;4923532;28;20071;-54
2023/01/24 02:37:00;;;;;;;14.45;4.40;;;;;;;-17.32;77.85;99382.44;4934338;28;20048;-55
2023/01/24 02:39:34;;;;;;;12.77;5.72;;;;;;;-17.34;78.11;99368.97;4924779;28;20053;-56
2023/01/24 02:42:10;;;;;;;5.78;4.70;;;;;;;-17.86;77.64;99269.34;4944372;28;20051;-56
2023/01/24 02:44:46;;;;;;;13.32;4.53;;;;;;;-17.32;77.88;99352.47;4915248;28;20111;-56
2023/01/24 02:47:17;;;;;;;7.97;3.95;;;;;;;-17.42;77.68;99326.81;4933672;28;20072;-56
2023/01/24 02:49:47;;;;;;;7.10;4.70;;;;;;;-17.18;77.16;99371.91;4934241;28;20048;-56
2023/01/24 02:55:06;;;;;;;9.32;4.32;;;;;;;-17.18;76.81;99346.94;4921068;28;20048;-55
2023/01/24 03:00:26;;;;;;;6.75;4.90;;;;;;;-17.05;76.73;99361.25;4914345;28;20052;-56
2023/01/24 03:02:57;;;;;;;6.55;3.92;;;;;;;-16.94;76.65;99382.03;4938560;28;20051;-57
2023/01/24 03:05:39;;;;;;;16.98;4.13;;;;;;;-17.02;75.47;99349.88;4933692;28;20070;-57
2023/01/24 03:08:10;;;;;;;5.57;3.78;;;;;;;-16.96;75.90;99360.31;4920317;28;20065;-57
2023/01/24 03:10:40;;;;;;;5.88;4.10;;;;;;;-16.92;75.75;99343.06;4938006;28;20072;-56
2023/01/24 03:35:36;;;;;;;7.43;4.60;;;;;;;-16.92;74.02;99269.00;4906501;28;20047;-57
2023/01/24 03:40:54;;;;;;;6.38;4.13;;;;;;;-17.47;75.76;99233.22;4921954;28;20661;-57
2023/01/24 03:43:27;;;;;;;6.80;3.90;;;;;;;-17.58;75.06;99229.03;4932724;28;20051;-57
2023/01/24 03:45:59;;;;;;;7.82;4.43;;;;;;;-17.67;76.01;99245.78;4932924;28;20079;-57
2023/01/24 03:48:34;;;;;;;9.60;5.35;;;;;;;-17.89;77.09;99236.69;4930383;28;20168;-57
2023/01/24 03:53:53;;;;;;;7.50;5.03;;;;;;;-17.87;76.68;99235.19;4921939;28;20116;-55
2023/01/24 03:56:23;;;;;;;8.43;5.40;;;;;;;-17.90;76.40;99212.47;4932798;28;20052;-56
2023/01/24 03:58:54;;;;;;;7.28;4.82;;;;;;;-17.85;76.83;99231.16;4931448;28;20055;-56
2023/01/24 04:01:26;;;;;;;7.55;5.15;;;;;;;-17.78;75.92;99209.16;4932396;28;20135;-56
2023/01/24 04:03:56;;;;;;;11.82;5.15;;;;;;;-17.70;75.18;99240.56;4931520;28;20125;-56
2023/01/24 04:06:27;;;;;;;13.70;5.03;;;;;;;-17.76;74.42;99238.47;4927195;28;20077;-56
2023/01/24 04:08:57;;;;;;;9.90;4.95;;;;;;;-17.64;74.32;99241.03;4931769;28;20086;-57
2023/01/24 04:11:28;;;;;;;14.80;5.20;;;;;;;-17.48;74.98;99226.47;4932399;28;20942;-55
2023/01/24 04:13:59;;;;;;;20.15;4.30;;;;;;;-17.44;74.12;99228.47;4931957;28;20056;-56
2023/01/24 04:16:32;;;;;;;8.93;5.13;;;;;;;-17.52;73.28;99233.59;4931440;28;20061;-59
2023/01/24 04:19:02;;;;;;;10.85;4.28;;;;;;;-17.61;73.06;99223.81;4920288;28;20063;-55
2023/01/24 04:21:33;;;;;;;9.85;5.25;;;;;;;-17.62;73.60;99217.06;4932416;28;20070;-56
2023/01/24 04:24:03;;;;;;;8.15;5.55;;;;;;;-17.81;73.58;99166.56;4932005;28;20108;-56
2023/01/24 04:26:34;;;;;;;7.78;5.28;;;;;;;-17.66;74.21;99210.09;4931853;28;20157;-54
2023/01/24 04:29:05;;;;;;;5.35;4.95;;;;;;;-17.55;74.87;99209.28;4932155;28;20054;-57
2023/01/24 04:31:37;;;;;;;10.23;5.25;;;;;;;-17.52;74.32;99192.06;4932163;28;20371;-56
2023/01/24 04:34:08;;;;;;;6.70;4.68;;;;;;;-17.47;74.13;99190.78;4931601;28;20071;-56
2023/01/24 04:36:38;;;;;;;5.05;4.05;;;;;;;-17.34;74.11;99171.72;4931993;28;20050;-58
2023/01/24 04:39:09;;;;;;;6.32;5.07;;;;;;;-17.23;73.83;99168.41;4930989;28;20797;-58
2023/01/24 04:41:39;;;;;;;6.85;4.57;;;;;;;-17.28;73.01;99155.56;4930893;28;20587;-57
2023/01/24 04:44:10;;;;;;;13.45;5.05;;;;;;;-17.43;73.87;99155.31;4937985;28;20060;-56
2023/01/24 04:46:42;;;;;;;4.60;4.10;;;;;;;-17.60;73.93;99163.13;4935165;28;20069;-57
2023/01/24 04:49:12;;;;;;;4.90;3.90;;;;;;;-17.66;74.29;99160.19;4916528;28;20055;-57
2023/01/24 04:51:43;;;;;;;8.77;5.50;;;;;;;-17.92;73.92;99121.69;4926947;28;20059;-57
2023/01/24 04:54:13;;;;;;;9.40;5.13;;;;;;;-17.79;74.64;99170.00;4930249;28;20152;-57
2023/01/24 04:56:44;;;;;;;12.80;5.88;;;;;;;-18.00;73.90;99157.63;4930964;28;20390;-56
2023/01/24 04:59:15;;;;;;;11.07;5.00;;;;;;;-17.95;74.27;99166.34;4930972;28;20059;-56
2023/01/24 05:01:48;;;;;;;9.45;4.53;;;;;;;-17.97;74.61;99162.84;4923396;28;20117;-57
2023/01/24 05:04:19;;;;;;;12.73;4.85;;;;;;;-18.03;74.07;99147.44;4928352;28;20051;-56
2023/01/24 05:06:49;;;;;;;11.63;5.13;;;;;;;-17.86;73.37;99136.25;4913728;28;20101;-57
2023/01/24 05:09:20;;;;;;;5.13;4.07;;;;;;;-17.51;72.84;99141.38;4922524;28;20136;-57
2023/01/24 05:11:51;;;;;;;8.63;4.68;;;;;;;-17.77;71.89;99067.03;4930079;28;20116;-55
2023/01/24 05:14:21;;;;;;;14.93;5.38;;;;;;;-17.55;72.22;99124.41;4929793;28;20878;-58
2023/01/24 05:16:54;;;;;;;10.90;5.07;;;;;;;-17.74;72.93;99117.19;4931496;28;20120;-56
2023/01/24 05:19:24;;;;;;;18.13;6.25;;;;;;;-18.39;74.04;99031.66;4918160;28;20048;-57
2023/01/24 05:21:55;;;;;;;14.73;5.25;;;;;;;-17.94;74.04;99118.22;4930639;28;20437;-56
2023/01/24 05:24:25;;;;;;;13.88;6.10;;;;;;;-17.83;74.55;99132.34;4929932;28;20051;-57
2023/01/24 05:26:56;;;;;;;14.23;5.72;;;;;;;-17.77;73.93;99111.09;4926357;28;20075;-56
2023/01/24 05:29:26;;;;;;;9.75;5.32;;;;;;;-17.96;73.67;99109.75;4924812;28;20063;-56
2023/01/24 05:31:58;;;;;;;10.60;5.78;;;;;;;-17.90;73.41;99115.19;4928100;28;20070;-56
2023/01/24 05:34:30;;;;;;;12.88;6.18;;;;;;;-18.02;73.07;99105.91;4930681;28;20143;-58
2023/01/24 05:37:01;;;;;;;8.43;5.82;;;;;;;-18.03;72.53;99097.56;4925854;28;20057;-57
2023/01/24 05:39:32;;;;;;;21.85;8.20;;;;;;;-18.03;73.28;99092.56;4934916;28;20142;-56
2023/01/24 05:42:02;;;;;;;29.80;6.63;;;;;;;-18.06;73.20;99099.81;4930410;28;20108;-55
2023/01/24 05:44:33;;;;;;;14.95;6.32;;;;;;;-18.25;72.94;99109.13;4928097;28;20048;-56
2023/01/24 05:47:05;;;;;;;8.50;4.93;;;;;;;-18.19;72.55;99114.56;4931876;28;20044;-56
2023/01/24 05:49:35;;;;;;;10.93;5.80;;;;;;;-18.32;72.38;99111.16;4932153;28;20045;-56
2023/01/24 05:52:06;;;;;;;16.83;6.40;;;;;;;-18.38;71.86;99058.31;4934466;28;20079;-55
2023/01/24 05:54:36;;;;;;;15.50;6.55;;;;;;;-18.30;72.41;99102.16;4934109;28;20081;-56
2023/01/24 05:57:07;;;;;;;13.48;6.40;;;;;;;-18.40;72.62;99129.59;4934949;27;20047;-57
2023/01/24 05:59:38;;;;;;;10.90;6.05;;;;;;;-18.38;72.75;99103.19;4933250;28;20048;-57
2023/01/24 06:02:10;;;;;;;12.18;5.22;;;;;;;-18.39;71.75;99103.94;4936203;27;20383;-58
2023/01/24 06:04:40;;;;;;;9.45;5.25;;;;;;;-18.39;71.87;99121.41;4925584;28;20483;-58
2023/01/24 06:07:11;;;;;;;13.90;6.07;;;;;;;-18.48;73.29;99110.69;4933458;28;20477;-57
2023/01/24 06:09:41;;;;;;;13.85;6.07;;;;;;;-18.52;74.37;99123.66;4932967;28;20433;-57
2023/01/24 06:12:12;;;;;;;10.23;5.70;;;;;;;-18.58;74.75;99128.16;4934361;28;20136;-57
2023/01/24 06:14:42;;;;;;;12.73;6.28;;;;;;;-18.67;75.84;99107.50;4934751;28;20076;-57
2023/01/24 06:17:14;;;;;;;14.85;6.60;;;;;;;-18.88;75.59;99097.63;4935237;28;20055;-57
2023/01/24 06:19:45;;;;;;;12.88;6.43;;;;;;;-18.77;76.23;99146.66;4934197;28;20516;-57
2023/01/24 06:22:24;;;;;;;11.43;6.43;;;;;;;-19.07;75.79;99084.44;4932778;28;20401;-57
2023/01/24 06:24:55;;;;;;;14.90;7.13;;;;;;;-18.86;76.42;99116.06;4914610;28;20055;-57
2023/01/24 06:27:26;;;;;;;15.10;6.32;;;;;;;-19.00;76.07;99119.06;4932373;28;20058;-57
2023/01/24 06:29:57;;;;;;;14.07;6.90;;;;;;;-19.81;76.42;99003.91;4932570;28;20044;-57
2023/01/24 06:32:46;;;;;;;18.00;5.97;;;;;;;-19.21;75.92;99111.59;4926395;28;20112;-57
2023/01/24 06:35:27;;;;;;;8.50;5.57;;;;;;;-19.20;75.94;99118.31;4918313;28;20047;-57
2023/01/24 06:37:58;;;;;;;9.85;4.45;;;;;;;-19.16;75.88;99120.31;4896857;28;20066;-57
2023/01/24 06:40:30;;;;;;;15.98;6.60;;;;;;;-19.13;75.81;99118.81;4930006;28;20266;-57
2023/01/24 06:43:01;;;;;;;11.88;6.10;;;;;;;-19.23;76.01;99113.09;4927191;28;20053;-57
2023/01/24 06:45:33;;;;;;;12.88;5.88;;;;;;;-19.26;76.42;99092.94;4943868;28;20052;-57
2023/01/24 06:48:05;;;;;;;8.20;6.05;;;;;;;-19.30;76.59;99119.94;4904537;28;20055;-57
2023/01/24 06:50:36;;;;;;;9.98;6.22;;;;;;;-19.38;76.29;99095.31;4933974;28;20053;-57
2023/01/24 06:53:07;;;;;;;15.48;6.57;;;;;;;-19.40;76.98;99098.41;4934269;28;20092;-57
2023/01/24 06:55:38;;;;;;;9.05;5.70;;;;;;;-19.46;77.21;99102.91;4930058;28;20064;-57
2023/01/24 06:58:08;;;;;;;10.35;5.40;;;;;;;-19.54;76.99;99088.94;4932945;28;20474;-57
2023/01/24 07:00:39;;;;;;;17.55;6.00;;;;;;;-19.62;77.16;99071.75;4933524;28;20048;-57
2023/01/24 07:03:11;;;;;;;16.65;7.38;;;;;;;-19.76;77.56;99059.88;4928608;28;20389;-58
2023/01/24 07:05:42;;;;;;;14.05;7.53;;;;;;;-19.76;78.01;99079.78;4931899;28;20094;-57
2023/01/24 07:08:12;;;;;;;9.20;5.80;;;;;;;-19.85;77.47;99092.28;4934602;28;20962;-56
2023/01/24 07:10:49;;;;;;;14.40;6.95;;;;;;;-19.94;78.05;99071.66;4934399;28;20067;-57
2023/01/24 07:13:19;;;;;;;6.57;5.93;;;;;;;-20.02;78.39;99068.50;4933062;28;20049;-54
2023/01/24 07:15:50;;;;;;;5.75;5.15;;;;;;;-20.04;78.62;99070.03;4940329;28;20061;-56
2023/01/24 07:18:23;;;;;;;7.00;5.50;;;;;;;-20.09;78.18;99063.81;4937533;28;20204;-56
2023/01/24 07:20:54;;;;;;;11.75;6.20;;;;;;;-20.13;78.51;99059.31;4933036;28;20059;-55
2023/01/24 07:23:28;;;;;;;14.02;5.68;;;;;;;-20.18;78.40;99060.53;4932060;28;20493;-55
2023/01/24 07:25:59;;;;;;;11.98;6.93;;;;;;;-20.19;77.76;99063.75;4933310;28;20162;-57
2023/01/24 07:28:29;;;;;;;10.80;6.28;;;;;;;-20.19;77.76;99092.72;4933428;28;20049;-54
2023/01/24 07:31:00;;;;;;;9.52;6.00;;;;;;;-20.20;77.21;99111.72;4940793;28;20066;-56
2023/01/24 07:33:32;;;;;;;6.32;4.60;;;;;;;-20.20;78.01;99101.78;4937398;28;20053;-56
2023/01/24 07:36:02;;;;;;;12.48;6.05;;;;;;;-20.33;78.72;99089.06;4926587;28;20056;-56
2023/01/24 07:38:33;;;;;;;11.73;6.70;;;;;;;-20.22;78.38;99108.22;4929580;28;20048;-55
2023/01/24 07:41:08;;;;;;;13.48;5.50;;;;;;;-20.24;78.17;99146.97;4934044;28;20603;-55
2023/01/24 07:43:39;;;;;;;9.20;5.75;;;;;;;-20.24;78.48;99127.09;4932966;27;20048;-56
2023/01/24 07:46:09;;;;;;;9.55;5.53;;;;;;;-20.24;78.58;99125.50;4928686;27;20060;-55
2023/01/24 07:48:42;;;;;;;8.38;5.32;;;;;;;-20.65;78.28;99049.97;4937228;27;20049;-55
2023/01/24 07:51:12;;;;;;;8.38;6.18;;;;;;;-20.27;78.16;99104.50;4931930;28;20188;-54
2023/01/24 07:53:43;;;;;;;8.00;5.85;;;;;;;-20.23;77.77;99116.44;4942786;27;20082;-55
2023/01/24 07:56:15;;;;;;;6.28;5.32;;;;;;;-20.23;77.74;99121.41;4922196;28;20063;-54
2023/01/24 07:58:54;;;;;;;5.80;5.28;;;;;;;-20.29;77.20;99115.91;4922259;28;20055;-54
2023/01/24 08:01:26;;;;;;;13.02;5.45;;;;;;;-20.50;77.57;99066.16;4929657;28;20047;-55
2023/01/24 08:04:01;;;;;;;6.70;5.25;;;;;;;-20.41;77.34;99099.94;4914853;28;20048;-57
2023/01/24 08:06:32;;;;;;;8.18;4.88;;;;;;;-20.21;77.64;99134.84;4921161;28;20039;-57
2023/01/24 08:09:03;;;;;;;13.38;6.55;;;;;;;-20.25;78.27;99128.72;4941004;28;20047;-56
2023/01/24 08:11:34;;;;;;;11.45;6.18;;;;;;;-20.37;77.85;99101.97;4920401;28;20688;-57
2023/01/24 08:14:10;;;;;;;7.40;5.35;;;;;;;-20.23;77.77;99123.91;4918654;28;20625;-55
2023/01/24 08:16:41;;;;;;;7.95;5.53;;;;;;;-20.43;77.77;99081.59;4920724;28;20051;-55
2023/01/24 08:19:14;;;;;;;12.00;6.38;;;;;;;-20.31;77.75;99139.78;4930312;28;20132;-56
2023/01/24 08:22:05;;;;;;;11.98;6.70;;;;;;;-20.31;78.03;99124.88;4903565;28;20077;-56
2023/01/24 08:24:37;;;;;;;16.17;7.03;;;;;;;-20.34;78.29;99117.13;4929704;28;20048;-56
2023/01/24 08:27:12;;;;;;;11.25;7.25;;;;;;;-20.61;77.87;99071.84;4915736;28;20043;-64
2023/01/24 08:29:49;;;;;;;9.43;6.47;;;;;;;-20.41;77.62;99119.81;4932921;28;20067;-57
2023/01/24 08:32:20;;;;;;;6.13;5.28;;;;;;;-20.39;77.42;99103.44;4912997;27;20067;-55
2023/01/24 08:34:59;;;;;;;15.57;7.63;;;;;;;-20.64;77.11;99056.66;4920496;28;20047;-57
2023/01/24 08:37:30;;;;;;;10.15;6.20;;;;;;;-20.48;77.01;99094.47;4922489;28;20079;-56
2023/01/24 08:40:00;;;;;;;22.92;8.30;;;;;;;-20.50;76.94;99095.94;4918597;28;20069;-55
2023/01/24 08:42:31;;;;;;;13.80;6.53;;;;;;;-20.61;76.68;99066.00;4942280;28;20041;-55
2023/01/24 08:45:01;;;;;;;10.52;6.53;;;;;;;-20.51;76.96;99086.78;4930604;28;20526;-56
2023/01/24 08:47:33;;;;;;;13.00;6.35;;;;;;;-20.51;77.07;99084.28;4919002;28;20051;-55
2023/01/24 08:50:18;;;;;;;30.20;7.15;;;;;;;-20.57;76.29;99088.75;4927029;28;20176;-55
2023/01/24 08:52:59;;;;;;;9.00;6.95;;;;;;;-20.62;76.45;99075.06;4911616;28;20142;-53
2023/01/24 08:55:31;;;;;;;10.93;6.22;;;;;;;-20.58;76.39;99076.22;4924824;28;20142;-55
2023/01/24 08:58:03;;;;;;;13.65;7.38;;;;;;;-20.60;75.48;99072.72;4924779;28;20052;-56
2023/01/24 09:00:34;;;;;;;19.08;7.22;;;;;;;-20.56;75.18;99087.13;4931380;28;20058;-55
2023/01/24 09:03:06;;;;;;;22.38;8.52;;;;;;;-20.55;75.11;99087.28;4932847;28;20121;-54
2023/01/24 09:05:53;;;;;;;16.67;5.85;;;;;;;-20.65;75.25;99064.88;4910253;28;20066;-55
2023/01/24 09:08:25;;;;;;;11.65;7.90;;;;;;;-20.56;75.59;99088.03;4926922;28;20063;-55
2023/01/24 09:10:59;;;;;;;11.50;8.15;;;;;;;-20.57;75.71;99083.78;4924629;28;20586;-57
2023/01/24 09:13:31;;;;;;;15.75;7.40;;;;;;;-20.60;75.93;99078.56;4922608;28;20103;-56
2023/01/24 09:16:02;;;;;;;6.07;5.18;;;;;;;-20.59;75.98;99067.00;4925820;28;20067;-55
2023/01/24 09:18:34;;;;;;;12.38;6.90;;;;;;;-20.96;75.44;99017.56;4928966;28;20990;-56
2023/01/24 09:21:07;;;;;;;13.05;6.55;;;;;;;-20.64;75.92;99066.59;4930674;28;20051;-56
2023/01/24 09:23:39;;;;;;;8.52;6.55;;;;;;;-20.63;75.96;99065.88;4931376;28;20067;-55
2023/01/24 09:26:10;;;;;;;8.77;6.82;;;;;;;-20.66;75.39;99068.13;4928768;28;20053;-54
2023/01/24 09:28:42;;;;;;;18.70;7.90;;;;;;;-20.70;75.14;99052.06;4930361;28;20112;-54
2023/01/24 09:31:14;;;;;;;10.65;6.38;;;;;;;-20.72;75.03;99067.56;4930665;28;20047;-55
2023/01/24 09:33:45;;;;;;;12.48;6.70;;;;;;;-20.72;74.97;99048.56;4922599;28;20052;-55
2023/01/24 09:36:30;;;;;;;17.95;6.90;;;;;;;-20.73;74.78;99060.88;4920905;28;20048;-55
2023/01/24 09:39:02;;;;;;;16.30;7.15;;;;;;;-20.72;74.90;99045.22;4912091;28;20063;-55
2023/01/24 09:41:47;;;;;;;13.73;6.45;;;;;;;-20.68;74.76;99044.75;4929524;28;20048;-56
2023/01/24 09:44:45;;;;;;;19.02;8.25;;;;;;;-20.72;75.13;99038.63;4930226;28;20145;-55
2023/01/24 09:47:22;;;;;;;14.48;6.90;;;;;;;-20.64;75.23;99041.78;4921915;28;20052;-55
2023/01/24 09:49:59;;;;;;;16.27;7.72;;;;;;;-20.71;75.30;99035.44;4920790;28;20059;-55
2023/01/24 09:52:38;;;;;;;12.57;5.90;;;;;;;-20.93;75.31;99010.38;4928071;28;20053;-56
2023/01/24 09:55:16;;;;;;;12.95;6.95;;;;;;;-20.62;75.96;99035.34;4929399;28;20081;-56
2023/01/24 09:57:56;;;;;;;13.05;6.95;;;;;;;-20.61;76.70;99021.28;4935010;28;20128;-55
2023/01/24 10:00:31;;;;;;;8.23;6.25;;;;;;;-20.60;77.15;99023.91;4922089;28;20522;-55
2023/01/24 10:03:17;;;;;;;13.40;6.55;;;;;;;-20.61;77.11;99034.63;4927141;28;20077;-55
2023/01/24 10:05:51;;;;;;;14.73;7.25;;;;;;;-20.67;77.52;99031.59;4913636;28;20050;-57
2023/01/24 10:08:30;;;;;;;6.97;5.78;;;;;;;-20.62;77.46;99030.38;4920736;28;20062;-55
2023/01/24 10:11:17;;;;;;;16.73;7.25;;;;;;;-20.60;77.12;99033.84;4921586;28;20192;-56
2023/01/24 10:14:30;;;;;;;15.80;8.10;;;;;;;-20.61;77.31;99036.19;4920897;28;20054;-56
2023/01/24 10:17:35;;;;;;;14.45;8.27;;;;;;;-20.71;77.18;98999.81;4907513;28;20134;-55
2023/01/24 10:20:34;;;;;;;14.00;7.38;;;;;;;-20.75;77.47;98997.81;4920452;28;20048;-56
2023/01/24 10:23:12;;;;;;;19.10;8.05;;;;;;;-20.67;77.75;99002.66;4918782;28;20051;-56
2023/01/24 10:25:53;;;;;;;20.02;9.07;;;;;;;-20.76;77.57;98981.13;4927719;28;20079;-55
2023/01/24 10:28:31;;;;;;;17.65;8.25;;;;;;;-20.70;77.76;98996.56;4923255;28;20063;-55
2023/01/24 10:31:09;;;;;;;19.23;7.88;;;;;;;-21.49;77.57;98862.53;4924820;28;20087;-56
2023/01/24 10:33:47;;;;;;;22.92;9.27;;;;;;;-20.73;77.86;98996.31;4924083;28;20260;-55
2023/01/24 10:36:26;;;;;;;23.05;8.05;;;;;;;-20.82;77.71;98993.91;4923384;28;20052;-56
2023/01/24 10:38:58;;;;;;;10.50;8.15;;;;;;;-20.75;77.98;98992.84;4923684;28;20053;-55
2023/01/24 10:41:34;;;;;;;24.35;9.65;;;;;;;-20.85;77.71;98975.41;4942120;28;21250;-56
2023/01/24 10:44:10;;;;;;;23.85;8.90;;;;;;;-20.73;77.38;98991.34;4924082;28;20519;-56
2023/01/24 10:47:14;;;;;;;14.07;7.03;;;;;;;-20.72;77.27;98978.19;4922703;28;20379;-55
2023/01/24 10:49:52;;;;;;;23.38;8.52;;;;;;;-20.74;77.06;98979.66;4906616;28;20071;-56
2023/01/24 10:52:25;;;;;;;16.35;7.30;;;;;;;-20.74;76.68;98969.72;4923651;28;20068;-55
2023/01/24 10:54:57;;;;;;;13.98;6.80;;;;;;;-20.77;76.14;98965.38;4933236;28;20652;-54
2023/01/24 10:57:37;;;;;;;24.95;7.57;;;;;;;-21.52;75.81;98841.59;4933707;28;20066;-56
2023/01/24 11:00:34;;;;;;;15.75;6.82;;;;;;;-21.01;76.02;98944.34;4922992;28;20048;-55
2023/01/24 11:03:18;;;;;;;16.60;7.72;;;;;;;-20.75;75.30;98950.63;4919817;28;20052;-53
2023/01/24 11:05:51;;;;;;;16.55;6.88;;;;;;;-20.71;75.17;98960.09;4922568;28;20056;-55
2023/01/24 11:08:24;;;;;;;13.52;6.90;;;;;;;-20.83;74.76;98944.16;4922813;28;20059;-54
2023/01/24 11:10:58;;;;;;;11.00;5.95;;;;;;;-20.69;74.75;98963.53;4945404;28;20047;-54
2023/01/24 11:13:37;;;;;;;14.68;6.43;;;;;;;-20.70;74.61;98951.88;4923776;28;20146;-55
2023/01/24 11:16:22;;;;;;;16.63;7.30;;;;;;;-20.68;74.52;98945.44;4922403;28;20048;-55
2023/01/24 11:18:57;;;;;;;7.82;6.97;;;;;;;-20.67;74.75;98944.69;4921713;28;20044;-55
2023/01/24 11:21:31;;;;;;;16.90;6.97;;;;;;;-20.73;74.62;98931.78;4933850;28;20044;-55
2023/01/24 11:24:10;;;;;;;15.90;7.30;;;;;;;-20.85;74.39;98925.78;4924040;28;20105;-57
2023/01/24 11:26:55;;;;;;;20.67;7.97;;;;;;;-20.65;74.09;98940.72;4923982;28;20522;-55
2023/01/24 11:29:28;;;;;;;7.05;6.25;;;;;;;-20.62;74.05;98936.00;4922672;28;20051;-55
2023/01/24 11:32:08;;;;;;;15.90;7.63;;;;;;;-20.65;74.07;98933.28;4933188;28;20052;-55
2023/01/24 11:34:52;;;;;;;9.45;6.18;;;;;;;-20.60;74.63;98949.41;4933422;28;20055;-55
2023/01/24 11:37:43;;;;;;;6.45;5.32;;;;;;;-20.60;74.41;98938.63;4923303;28;20196;-54
2023/01/24 11:40:34;;;;;;;10.50;6.20;;;;;;;-20.59;74.41;98931.28;4922246;28;20508;-56
2023/01/24 11:43:28;;;;;;;13.02;6.10;;;;;;;-20.55;74.80;98938.25;4921017;28;20059;-57
2023/01/24 11:46:22;;;;;;;13.75;6.57;;;;;;;-20.62;74.57;98925.22;4923662;28;20097;-56
2023/01/24 11:48:58;;;;;;;27.25;8.10;;;;;;;-20.65;74.68;98920.84;4902419;28;20079;-54
2023/01/24 11:51:43;;;;;;;17.55;7.15;;;;;;;-20.57;74.31;98927.31;4931594;28;20049;-54
2023/01/24 11:54:32;;;;;;;14.52;6.28;;;;;;;-20.54;74.53;98931.66;4922418;28;20485;-56
2023/01/24 11:57:11;;;;;;;21.83;8.70;;;;;;;-20.97;74.71;98871.88;4922465;28;20048;-54
2023/01/24 12:00:02;;;;;;;15.85;7.10;;;;;;;-20.50;74.86;98912.16;4922799;28;20065;-56
2023/01/24 12:03:06;;;;;;;18.00;6.88;;;;;;;-20.52;74.13;98908.66;4921703;28;20047;-56
2023/01/24 12:05:52;;;;;;;27.15;7.68;;;;;;;-20.52;73.73;98913.63;4922560;28;20128;-54
2023/01/24 12:08:41;;;;;;;25.98;8.32;;;;;;;-20.67;73.18;98872.69;4921693;28;20062;-53
2023/01/24 12:11:24;;;;;;;12.55;6.20;;;;;;;-20.48;73.47;98905.69;4921551;28;20047;-55
2023/01/24 12:14:27;;;;;;;25.25;7.38;;;;;;;-20.70;73.76;98862.50;4915241;28;20052;-54
2023/01/24 12:17:08;;;;;;;11.18;6.30;;;;;;;-20.64;73.86;98882.84;4912921;28;20539;-52
2023/01/24 12:20:15;;;;;;;8.95;5.53;;;;;;;-20.46;74.09;98904.22;4917990;28;20494;-53
2023/01/24 12:23:06;;;;;;;11.38;6.57;;;;;;;-20.45;73.93;98905.94;4923903;28;20054;-53
2023/01/24 12:25:44;;;;;;;12.57;6.03;;;;;;;-20.42;74.09;98899.50;4934798;28;20475;-54
2023/01/24 12:28:27;;;;;;;8.75;6.80;;;;;;;-20.38;73.96;98911.44;4931561;28;20047;-55
2023/01/24 12:31:00;;;;;;;18.98;6.30;;;;;;;-20.40;74.16;98902.97;4934161;28;20059;-54
2023/01/24 12:33:36;;;;;;;17.65;6.10;;;;;;;-20.40;74.24;98905.47;4934654;28;20297;-55